Clara, Missouri
Current Conditions -  °F | °C
As of 1:53 PM on Sunday 23 Nov 2014 (Local Time) from KUNO Reporting Station
Overcast Overcast  
Wind Chill: 56°   Ceiling: 500
Heat Index: 56°   Visibility: 10mi
Dew Point: 54°   Wind: 5mph
Humidity: 93%   Direction: 140°SE
Pressure: 29.37"   Gusts: NA
Location:  37.3091°N, 91.9516°W
Report Text: KUNO 231953Z AUTO 14004KT 10SM OVC005 13/12 A2937 RMK AO2 RAE50 CIG 004V009 SLP942 P0006 T01330122
Loading
Personal Weather Stations






























Interactive Weather Map New forecast layout! Learn more

10-Day Weather Forecast

Advertisements
Track Severe Weather on mobile